• Join FlightAware (Why Join?)
  • Login
  • US Flag 
06:56AM EST


 

Airport Tracker/Info


-or-


 

Live Flight TrackerFlight Track Log ✈ TAM3736 ✈ 14-Jul-2013 ✈ SBSP / CGH - SBSR / SJP

Flight Track Log - Related Links

Times and Time Zones

All times are in EDT time to prevent confusion due to time zone crossing. See the TAM3736 flight status page for this flight to view local times or setup timezone preferences in your user account.

Time Position Orientation Groundspeed Altitude Reporting Facility
EDT Latitude Longitude Course Direction KTS MPH feet Rate Location/Type
09:28PM -22.1680 -48.1029 317° Northwest  Level Estimated
09:29PM -22.1069 -48.1625 318° Northwest  Level Estimated
09:30PM -22.0458 -48.2221 318° Northwest  Level Estimated
09:31PM -21.9847 -48.2817 318° Northwest  Level Estimated
09:32PM -21.9236 -48.3411 318° Northwest  Level Estimated
09:33PM -21.8625 -48.4006 318° Northwest  Level Estimated
09:34PM -21.8013 -48.4600 318° Northwest  Level Estimated
09:35PM -21.7401 -48.5193 318° Northwest  Level Estimated
09:36PM -21.6789 -48.5786 318° Northwest  Level Estimated
09:37PM -21.6177 -48.6378 318° Northwest  Level Estimated
09:38PM -21.5564 -48.6970 318° Northwest  Level Estimated
09:39PM -21.4951 -48.7562 318° Northwest  Level Estimated
09:40PM -21.4338 -48.8153 318° Northwest  Level Estimated
09:41PM -21.3725 -48.8743 318° Northwest  Level Estimated
09:42PM -21.3112 -48.9333 318° Northwest  Level Estimated
09:43PM -21.2498 -48.9922 318° Northwest  Level Estimated
09:44PM -21.1885 -49.0511 318° Northwest  Level Estimated
09:45PM -21.1271 -49.1100 318° Northwest  Level Estimated
09:46PM -21.0656 -49.1688 318° Northwest  Level Estimated
09:47PM -21.0042 -49.2275 318° Northwest  Level Estimated
09:48PM -20.9428 -49.2862 318° Northwest  Level Estimated
09:49PM -20.8813 -49.3448 318° Northwest  Level Estimated
09:50PM -20.8198 -49.4035 318° Northwest  Level Estimated
09:51PM -20.8166 -49.4065 318° Northwest  Level Estimated
09:52PM -20.8166 -49.4065 343° North  Level Estimated
09:53PM -20.8166 -49.4065 343° North  Level Estimated
09:54PM -20.8166 -49.4065 343° North  Level Estimated
09:55PM -20.8166 -49.4065 343° North  Level Estimated
09:56PM -20.8166 -49.4065 343° North  Level Estimated
09:57PM -20.8166 -49.4065 343° North  Level Estimated
09:58PM -20.8166 -49.4065 343° North  Level Estimated
09:59PM -20.8166 -49.4065 343° North  Level Estimated
10:00PM -20.8166 -49.4065 343° North  Level Estimated
10:01PM -20.8166 -49.4065 343° North  Level Estimated
10:02PM -20.8166 -49.4065 343° North  Level Estimated
10:03PM -20.8166 -49.4065 343° North  Level Estimated
10:04PM -20.8166 -49.4065 343° North  Level Estimated
10:05PM -20.8166 -49.4065 343° North  Level Estimated
10:06PM -20.8166 -49.4065 343° North  Level Estimated